createdAt,value
2018-06-24T00:01:13.752Z,73.50
2018-06-24T00:03:42.796Z,74.10
2018-06-24T00:06:11.851Z,74.70
2018-06-24T00:08:41.187Z,75.10
2018-06-24T00:11:10.512Z,75.50
2018-06-24T00:13:39.801Z,75.70
2018-06-24T00:16:08.896Z,76.00
2018-06-24T00:18:37.940Z,76.30
2018-06-24T00:21:07.009Z,78.20
2018-06-24T00:23:36.051Z,78.90
2018-06-24T00:28:33.817Z,79.70
2018-06-24T00:31:02.912Z,79.70
2018-06-24T00:33:31.959Z,79.70
2018-06-24T00:36:01.023Z,79.80
2018-06-24T00:40:59.447Z,80.20
2018-06-24T00:43:28.493Z,80.40
2018-06-24T00:45:57.556Z,80.10
2018-06-24T00:48:26.604Z,79.90
2018-06-24T00:53:24.375Z,80.00
2018-06-24T00:55:53.424Z,80.00
2018-06-24T00:58:22.545Z,80.30
2018-06-24T01:00:51.596Z,79.60
2018-06-24T01:03:20.664Z,79.40
2018-06-24T01:08:18.409Z,80.30
2018-06-24T01:10:47.473Z,80.40
2018-06-24T01:13:16.539Z,80.90
2018-06-24T01:15:45.587Z,81.10
2018-06-24T01:18:14.655Z,81.30
2018-06-24T01:20:43.702Z,81.30
2018-06-24T01:23:12.945Z,81.30
2018-06-24T01:25:41.988Z,81.20
2018-06-24T01:28:11.052Z,81.10
2018-06-24T01:30:40.132Z,80.80
2018-06-24T01:33:09.327Z,80.90
2018-06-24T01:35:38.368Z,80.80
2018-06-24T01:38:07.535Z,80.60
2018-06-24T01:40:36.588Z,80.10
2018-06-24T01:43:05.656Z,80.10
2018-06-24T01:45:34.705Z,79.90
2018-06-24T01:50:32.479Z,79.30
2018-06-24T01:55:30.272Z,79.20
2018-06-24T02:02:56.828Z,78.40
2018-06-24T02:05:25.884Z,77.90
2018-06-24T02:07:54.964Z,77.50
2018-06-24T02:10:24.016Z,77.00
2018-06-24T02:15:21.791Z,76.40
2018-06-24T02:17:50.864Z,76.80
2018-06-24T02:20:19.989Z,76.60
2018-06-24T02:22:49.063Z,76.40
2018-06-24T02:25:18.124Z,76.20
2018-06-24T02:27:47.208Z,76.20
2018-06-24T02:30:16.266Z,75.90
2018-06-24T02:32:45.348Z,76.00
2018-06-24T02:35:14.408Z,75.70
2018-06-24T02:37:43.475Z,75.40
2018-06-24T02:42:41.696Z,75.00
2018-06-24T02:45:10.751Z,74.80
2018-06-24T02:47:39.831Z,74.60
2018-06-24T02:50:08.884Z,74.50
2018-06-24T02:52:37.968Z,74.40
2018-06-24T02:55:07.027Z,74.50
2018-06-24T02:57:36.104Z,74.40
2018-06-24T03:00:05.173Z,74.00
2018-06-24T03:02:34.248Z,74.00
2018-06-24T03:05:03.303Z,73.80
2018-06-24T03:07:32.384Z,73.60
2018-06-24T03:10:01.440Z,73.20
2018-06-24T03:12:30.536Z,73.30
2018-06-24T03:14:59.588Z,73.20
2018-06-24T03:17:28.668Z,73.10
2018-06-24T03:19:57.777Z,72.40
2018-06-24T03:22:26.847Z,71.90
2018-06-24T03:24:55.908Z,72.00
2018-06-24T03:29:53.664Z,72.00
2018-06-24T03:32:22.745Z,71.90
2018-06-24T03:34:51.795Z,72.00
2018-06-24T03:37:20.864Z,71.50
2018-06-24T03:42:18.648Z,71.80
2018-06-24T03:47:16.452Z,71.70
2018-06-24T03:49:45.508Z,71.20
2018-06-24T03:52:14.565Z,70.80
2018-06-24T03:54:43.646Z,71.00
2018-06-24T03:57:12.700Z,70.80
2018-06-24T03:59:41.883Z,70.90
2018-06-24T04:02:11.152Z,70.70
2018-06-24T04:04:40.272Z,71.20
2018-06-24T04:07:09.305Z,70.90
2018-06-24T04:14:35.796Z,70.00
2018-06-24T04:17:04.868Z,69.90
2018-06-24T04:19:33.944Z,70.00
2018-06-24T04:22:03.012Z,69.90
2018-06-24T04:24:32.092Z,69.50
2018-06-24T04:27:01.148Z,69.40
2018-06-24T04:29:30.228Z,69.00
2018-06-24T04:31:59.288Z,69.10
2018-06-24T04:34:28.356Z,68.90
2018-06-24T04:39:26.127Z,69.10
2018-06-24T04:44:23.880Z,68.50
2018-06-24T04:46:52.945Z,68.80
2018-06-24T04:49:22.028Z,68.70
2018-06-24T04:51:51.084Z,68.20
2018-06-24T04:54:20.160Z,68.10
2018-06-24T04:56:49.216Z,67.60
2018-06-24T04:59:18.287Z,67.70
2018-06-24T05:04:16.071Z,66.40
2018-06-24T05:09:13.851Z,66.20
2018-06-24T05:11:42.928Z,66.10
2018-06-24T05:14:12.004Z,65.80
2018-06-24T05:16:41.052Z,65.90
2018-06-24T05:21:38.835Z,66.00
2018-06-24T05:24:07.911Z,65.60
2018-06-24T05:26:36.962Z,66.70
2018-06-24T05:29:06.255Z,65.70
2018-06-24T05:31:35.312Z,65.10
2018-06-24T05:39:01.772Z,63.90
2018-06-24T05:41:30.833Z,63.00
2018-06-24T05:43:59.912Z,62.90
2018-06-24T05:46:28.968Z,62.20
2018-06-24T05:48:59.057Z,60.70
2018-06-24T05:51:28.114Z,60.60
2018-06-24T05:53:57.191Z,60.10
2018-06-24T05:58:55.432Z,59.90
2018-06-24T06:01:24.479Z,60.00
2018-06-24T06:06:22.392Z,59.40
2018-06-24T06:08:51.564Z,60.00
2018-06-24T06:13:49.339Z,59.80
2018-06-24T06:16:18.396Z,59.00
2018-06-24T06:18:47.463Z,59.60
2018-06-24T06:21:16.515Z,58.80
2018-06-24T06:23:45.629Z,58.20
2018-06-24T06:26:14.676Z,58.50
2018-06-24T06:28:43.766Z,58.20
2018-06-24T06:31:12.823Z,57.70
2018-06-24T06:36:10.608Z,58.20
2018-06-24T06:41:08.963Z,57.50
2018-06-24T06:43:38.048Z,57.30
2018-06-24T06:46:09.988Z,57.90
2018-06-24T06:48:39.420Z,57.50
2018-06-24T06:51:09.738Z,57.50
2018-06-24T06:53:38.827Z,58.00
2018-06-24T06:56:08.236Z,58.80
2018-06-24T06:58:37.923Z,57.80
2018-06-24T07:01:07.000Z,56.90
2018-06-24T07:08:34.064Z,57.30
2018-06-24T07:11:03.148Z,57.10
2018-06-24T07:13:32.244Z,54.80
2018-06-24T07:16:01.320Z,55.10
2018-06-24T07:18:30.372Z,55.10
2018-06-24T07:20:59.547Z,54.70
2018-06-24T07:23:28.599Z,54.20
2018-06-24T07:25:58.107Z,54.90
2018-06-24T07:28:27.380Z,54.80
2018-06-24T07:30:56.461Z,54.00
2018-06-24T07:35:54.252Z,55.00
2018-06-24T07:38:24.036Z,55.70
2018-06-24T07:40:53.108Z,54.90
2018-06-24T07:43:22.159Z,55.00
2018-06-24T07:45:51.233Z,54.40
2018-06-24T07:50:48.990Z,53.70
2018-06-24T07:53:18.081Z,53.60
2018-06-24T07:55:47.272Z,54.50
2018-06-24T07:58:16.336Z,53.60
2018-06-24T08:00:45.458Z,53.70
2018-06-24T08:03:14.622Z,54.10
2018-06-24T08:05:43.700Z,53.30
2018-06-24T08:10:41.440Z,54.30
2018-06-24T08:13:10.520Z,54.20
2018-06-24T08:15:39.592Z,54.30
2018-06-24T08:18:08.644Z,53.80
2018-06-24T08:20:37.724Z,53.70
2018-06-24T08:23:06.959Z,52.30
2018-06-24T08:30:33.471Z,52.60
2018-06-24T08:33:02.545Z,52.60
2018-06-24T08:35:31.711Z,52.40
2018-06-24T08:38:00.764Z,52.50
2018-06-24T08:40:29.840Z,52.60
2018-06-24T08:42:58.887Z,53.10
2018-06-24T08:45:27.991Z,52.50
2018-06-24T08:47:57.136Z,53.10
2018-06-24T08:50:26.212Z,53.50
2018-06-24T08:55:23.948Z,55.10
2018-06-24T08:57:53.036Z,55.80
2018-06-24T09:00:22.111Z,55.60
2018-06-24T09:02:51.171Z,55.70
2018-06-24T09:07:49.016Z,56.00
2018-06-24T09:10:18.096Z,55.10
2018-06-24T09:12:47.227Z,55.10
2018-06-24T09:15:16.288Z,54.70
2018-06-24T09:17:45.319Z,55.50
2018-06-24T09:20:14.380Z,56.10
2018-06-24T09:22:43.419Z,55.80
2018-06-24T09:25:12.505Z,56.40
2018-06-24T09:27:41.570Z,56.40
2018-06-24T09:30:10.669Z,57.20
2018-06-24T09:32:39.703Z,57.40
2018-06-24T09:35:08.768Z,57.10
2018-06-24T09:37:37.891Z,56.80
2018-06-24T09:40:06.960Z,57.00
2018-06-24T09:42:35.992Z,57.00
2018-06-24T09:45:05.072Z,55.90
2018-06-24T09:47:34.112Z,55.80
2018-06-24T09:50:03.171Z,55.90
2018-06-24T09:52:32.344Z,55.50
2018-06-24T09:55:01.404Z,54.70
2018-06-24T09:57:30.476Z,54.20
2018-06-24T10:02:28.203Z,53.40
2018-06-24T10:04:57.235Z,52.70
2018-06-24T10:07:26.300Z,53.70
2018-06-24T10:09:55.336Z,54.20
2018-06-24T10:12:24.415Z,54.60
2018-06-24T10:14:53.454Z,54.00
2018-06-24T10:17:22.515Z,54.50
2018-06-24T10:19:51.547Z,55.20
2018-06-24T10:22:20.784Z,55.50
2018-06-24T10:24:49.857Z,56.50
2018-06-24T10:27:18.908Z,57.00
2018-06-24T10:29:47.944Z,57.50
2018-06-24T10:32:17.003Z,57.80
2018-06-24T10:34:46.035Z,57.90
2018-06-24T10:37:15.155Z,57.30
2018-06-24T10:39:44.192Z,57.40
2018-06-24T10:42:13.248Z,57.50
2018-06-24T10:44:42.287Z,56.80
2018-06-24T10:47:11.372Z,56.20
2018-06-24T10:49:40.451Z,56.00
2018-06-24T10:52:09.743Z,55.60
2018-06-24T10:54:38.780Z,55.70
2018-06-24T11:02:05.555Z,56.10
2018-06-24T11:04:34.556Z,57.80
2018-06-24T11:12:01.016Z,63.30
2018-06-24T11:14:30.056Z,65.00
2018-06-24T11:16:59.116Z,65.20
2018-06-24T11:21:56.956Z,63.80
2018-06-24T11:24:26.433Z,64.30
2018-06-24T11:26:55.487Z,65.00
2018-06-24T11:29:24.525Z,62.90
2018-06-24T11:31:53.585Z,63.00
2018-06-24T11:34:22.615Z,63.50
2018-06-24T11:36:51.699Z,59.70
2018-06-24T11:39:20.839Z,58.80
2018-06-24T11:41:49.888Z,58.70
2018-06-24T11:44:18.923Z,58.20
2018-06-24T11:46:47.975Z,58.70
2018-06-24T11:49:17.036Z,59.80
2018-06-24T11:51:46.091Z,57.10
2018-06-24T11:54:15.152Z,57.70
2018-06-24T11:56:44.213Z,57.80
2018-06-24T11:59:13.259Z,56.90
2018-06-24T12:01:42.320Z,56.30
2018-06-24T12:04:11.425Z,57.00
2018-06-24T12:06:40.439Z,57.20
2018-06-24T12:11:39.984Z,58.50
2018-06-24T12:14:09.055Z,58.80
2018-06-24T12:21:35.500Z,59.60
2018-06-24T12:24:04.836Z,59.60
2018-06-24T12:26:33.888Z,59.70
2018-06-24T12:29:02.939Z,59.10
2018-06-24T12:31:32.016Z,59.40
2018-06-24T12:36:36.195Z,60.40
2018-06-24T12:39:09.472Z,60.90
2018-06-24T12:41:38.796Z,60.50
2018-06-24T12:44:08.692Z,61.00
2018-06-24T12:46:37.914Z,61.10
2018-06-24T12:49:07.911Z,60.70
2018-06-24T12:51:38.048Z,61.60
2018-06-24T12:54:07.534Z,63.20
2018-06-24T12:56:36.588Z,64.30
2018-06-24T12:59:05.812Z,65.10
2018-06-24T13:01:34.732Z,65.40
2018-06-24T13:04:03.840Z,66.70
2018-06-24T13:06:32.881Z,67.60
2018-06-24T13:11:31.371Z,69.60
2018-06-24T13:14:00.426Z,70.00
2018-06-24T13:16:29.476Z,71.10
2018-06-24T13:21:27.232Z,69.90
2018-06-24T13:23:56.292Z,70.00
2018-06-24T13:26:25.328Z,67.20
2018-06-24T13:28:54.383Z,67.30
2018-06-24T13:31:23.506Z,63.80
2018-06-24T13:33:52.565Z,63.70
2018-06-24T13:36:21.596Z,63.70
2018-06-24T13:38:50.697Z,64.40
2018-06-24T13:41:19.732Z,62.50
2018-06-24T13:43:48.783Z,61.40
2018-06-24T13:46:17.819Z,60.40
2018-06-24T13:48:46.868Z,59.70
2018-06-24T13:51:15.904Z,59.40
2018-06-24T13:56:13.628Z,60.00
2018-06-24T13:58:42.684Z,59.40
2018-06-24T14:03:40.444Z,57.70
2018-06-24T14:06:09.520Z,57.60
2018-06-24T14:08:38.564Z,59.70
2018-06-24T14:13:36.323Z,61.20
2018-06-24T14:16:05.810Z,62.90
2018-06-24T14:18:34.879Z,63.50
2018-06-24T14:21:03.931Z,63.70
2018-06-24T14:26:01.715Z,67.40
2018-06-24T14:31:00.362Z,67.80
2018-06-24T14:33:29.436Z,63.70
2018-06-24T14:35:58.491Z,64.90
2018-06-24T14:38:27.572Z,67.70
2018-06-24T14:40:56.640Z,68.00
2018-06-24T14:43:25.735Z,67.50
2018-06-24T14:45:54.784Z,67.70
2018-06-24T14:48:23.856Z,67.10
2018-06-24T14:50:52.911Z,66.80
2018-06-24T14:53:21.987Z,66.80
2018-06-24T14:58:19.732Z,64.10
2018-06-24T15:00:48.951Z,64.40
2018-06-24T15:03:18.461Z,63.50
2018-06-24T15:05:47.728Z,62.20
2018-06-24T15:08:16.799Z,62.40
2018-06-24T15:10:45.852Z,63.10
2018-06-24T15:13:14.935Z,64.00
2018-06-24T15:15:44.000Z,64.90
2018-06-24T15:18:13.057Z,65.10
2018-06-24T15:23:10.801Z,64.80
2018-06-24T15:25:39.861Z,63.50
2018-06-24T15:28:08.917Z,65.70
2018-06-24T15:30:37.956Z,65.50
2018-06-24T15:33:07.019Z,65.90
2018-06-24T15:38:04.772Z,65.40
2018-06-24T15:40:33.809Z,65.70
2018-06-24T15:43:02.914Z,65.40
2018-06-24T15:45:31.954Z,65.70
2018-06-24T15:48:01.007Z,65.10
2018-06-24T15:50:30.052Z,65.50
2018-06-24T15:52:59.108Z,65.10
2018-06-24T15:55:28.147Z,65.10
2018-06-24T15:57:57.231Z,64.00
2018-06-24T16:00:26.263Z,65.60
2018-06-24T16:05:23.992Z,64.90
2018-06-24T16:07:53.043Z,64.70
2018-06-24T16:17:48.948Z,63.80
2018-06-24T16:20:18.057Z,63.50
2018-06-24T16:22:47.108Z,62.90
2018-06-24T16:30:14.012Z,62.60
2018-06-24T16:32:43.104Z,63.60
2018-06-24T16:35:12.183Z,63.30
2018-06-24T16:40:10.271Z,64.40
2018-06-24T16:45:08.017Z,64.90
2018-06-24T16:47:37.072Z,64.30
2018-06-24T16:50:06.244Z,64.30
2018-06-24T16:55:05.092Z,65.60
2018-06-24T16:57:34.144Z,65.80
2018-06-24T17:00:04.252Z,66.80
2018-06-24T17:02:33.315Z,67.70
2018-06-24T17:05:02.432Z,68.20
2018-06-24T17:07:31.483Z,67.70
2018-06-24T17:10:00.716Z,68.10
2018-06-24T17:12:29.897Z,68.50
2018-06-24T17:14:59.064Z,68.70
2018-06-24T17:22:25.512Z,69.00
2018-06-24T17:24:54.586Z,68.40
2018-06-24T17:27:23.644Z,68.30
2018-06-24T17:29:52.716Z,67.20
2018-06-24T17:34:57.003Z,68.70
2018-06-24T17:37:26.049Z,67.30
2018-06-24T17:47:21.175Z,69.50
2018-06-24T17:49:50.303Z,69.60
2018-06-24T17:57:16.769Z,69.70
2018-06-24T18:02:14.684Z,69.60
2018-06-24T18:04:43.763Z,69.40
2018-06-24T18:07:12.824Z,68.90
2018-06-24T18:09:41.904Z,69.00
2018-06-24T18:12:11.005Z,69.20
2018-06-24T18:14:40.668Z,69.30
2018-06-24T18:17:09.735Z,69.70
2018-06-24T18:22:07.560Z,70.00
2018-06-24T18:24:37.096Z,70.60
2018-06-24T18:27:06.676Z,70.40
2018-06-24T18:29:35.760Z,70.90
2018-06-24T18:32:04.821Z,71.50
2018-06-24T18:34:34.006Z,72.30
2018-06-24T18:37:03.088Z,73.00
2018-06-24T18:39:32.297Z,73.60
2018-06-24T18:42:01.360Z,74.20
2018-06-24T18:44:30.444Z,75.00
2018-06-24T18:46:59.500Z,75.30
2018-06-24T18:49:28.572Z,76.50
2018-06-24T18:51:57.643Z,77.50
2018-06-24T18:54:26.904Z,78.80
2018-06-24T18:56:56.062Z,79.30
2018-06-24T18:59:25.174Z,79.70
2018-06-24T19:01:54.224Z,80.10
2018-06-24T19:04:23.280Z,80.50
2018-06-24T19:06:52.355Z,81.00
2018-06-24T19:09:21.453Z,81.70
2018-06-24T19:11:50.534Z,81.80
2018-06-24T19:14:19.567Z,82.90
2018-06-24T19:19:17.358Z,83.70
2018-06-24T19:21:46.433Z,84.50
2018-06-24T19:24:15.499Z,85.30
2018-06-24T19:26:44.569Z,85.60
2018-06-24T19:29:13.627Z,85.80
2018-06-24T19:31:42.688Z,86.60
2018-06-24T19:34:11.724Z,87.00
2018-06-24T19:36:40.812Z,86.60
2018-06-24T19:39:11.005Z,86.60
2018-06-24T19:41:40.624Z,86.60
2018-06-24T19:44:09.816Z,86.60
2018-06-24T19:46:38.879Z,86.80
2018-06-24T19:49:07.915Z,87.00
2018-06-24T19:51:36.980Z,87.20
2018-06-24T19:54:06.271Z,87.40
2018-06-24T19:56:35.344Z,87.50
2018-06-24T19:59:04.503Z,87.70
2018-06-24T20:01:33.568Z,88.10
2018-06-24T20:04:02.599Z,88.00
2018-06-24T20:06:31.813Z,88.00
2018-06-24T20:09:00.855Z,88.00
2018-06-24T20:11:30.038Z,87.80
2018-06-24T20:16:27.855Z,88.10
2018-06-24T20:18:56.916Z,87.90
2018-06-24T20:21:25.990Z,88.10
2018-06-24T20:23:55.608Z,88.40
2018-06-24T20:28:53.644Z,88.60
2018-06-24T20:31:22.728Z,88.20
2018-06-24T20:33:51.804Z,88.20
2018-06-24T20:38:49.624Z,87.50
2018-06-24T20:41:18.776Z,87.20
2018-06-24T20:43:47.827Z,87.40
2018-06-24T20:46:17.864Z,87.70
2018-06-24T20:48:47.155Z,87.20
2018-06-24T20:51:16.227Z,87.20
2018-06-24T20:53:45.563Z,87.50
2018-06-24T20:56:15.184Z,87.40
2018-06-24T20:58:44.244Z,87.60
2018-06-24T21:01:13.315Z,87.50
2018-06-24T21:03:42.376Z,87.50
2018-06-24T21:06:11.481Z,87.50
2018-06-24T21:11:09.835Z,87.40
2018-06-24T21:13:38.887Z,87.50
2018-06-24T21:18:36.683Z,87.80
2018-06-24T21:21:05.753Z,87.60
2018-06-24T21:23:34.926Z,87.50
2018-06-24T21:26:04.436Z,87.30
2018-06-24T21:28:33.503Z,86.90
2018-06-24T21:31:02.580Z,87.00
2018-06-24T21:33:31.647Z,86.70
2018-06-24T21:38:29.536Z,87.10
2018-06-24T21:43:27.488Z,87.20
2018-06-24T21:45:56.536Z,87.10
2018-06-24T21:48:25.787Z,87.30
2018-06-24T21:50:54.887Z,87.60
2018-06-24T21:53:23.948Z,87.60
2018-06-24T21:55:53.024Z,87.60
2018-06-24T21:58:22.091Z,87.90
2018-06-24T22:00:51.159Z,88.00
2018-06-24T22:03:20.219Z,88.40
2018-06-24T22:05:49.295Z,88.40
2018-06-24T22:08:19.329Z,88.50
2018-06-24T22:10:48.380Z,88.80
2018-06-24T22:13:17.500Z,88.90
2018-06-24T22:15:46.547Z,89.10
2018-06-24T22:18:15.624Z,88.90
2018-06-24T22:20:44.720Z,89.10
2018-06-24T22:23:13.796Z,89.40
2018-06-24T22:28:11.660Z,90.00
2018-06-24T22:30:40.720Z,90.00
2018-06-24T22:33:09.833Z,90.10
2018-06-24T22:35:38.883Z,90.30
2018-06-24T22:38:07.956Z,90.30
2018-06-24T22:43:06.172Z,90.40
2018-06-24T22:45:35.228Z,90.50
2018-06-24T22:48:04.299Z,90.50
2018-06-24T22:50:33.356Z,90.50
2018-06-24T22:53:02.435Z,90.60
2018-06-24T22:58:00.219Z,90.60
2018-06-24T23:03:02.648Z,90.70
2018-06-24T23:08:00.187Z,90.90
2018-06-24T23:12:57.944Z,90.80
2018-06-24T23:15:26.981Z,90.90
2018-06-24T23:17:56.048Z,90.90
2018-06-24T23:20:25.091Z,90.90
2018-06-24T23:22:54.151Z,90.90
2018-06-24T23:25:23.188Z,91.00
2018-06-24T23:27:52.242Z,91.00
2018-06-24T23:30:21.284Z,91.10
2018-06-24T23:32:50.344Z,91.10
2018-06-24T23:37:48.096Z,91.10
2018-06-24T23:40:17.124Z,91.10
2018-06-24T23:45:14.880Z,91.20
2018-06-24T23:47:43.935Z,91.10
2018-06-24T23:50:12.970Z,91.10
2018-06-24T23:52:42.032Z,91.10
2018-06-24T23:55:11.149Z,91.30
2018-06-24T23:57:40.212Z,91.40
